Flugplatz Uetersen/Heist

EDHE · Schleswig-Holstein, Allemagne

METAR anciennes EDHE · Uetersen/Heist Airport

Tu vois ci-dessous les METAR des derniers jours. Sélectionne une année pour parcourir les METAR plus anciens, à partir de l'année 2007.

1 décembre 2022

Temps Code Temps Temp. Vue Base cloud Vent METAR/SPECI
11:20
M
4 °C 6 km - 080° 080° 6 kt METAR EDHI 011020Z 08006KT 030V120 6000 SCT014 04/02 Q1029
10:50
I
4 °C 4,8 km - 060° 060° 7 kt METAR EDHI 010950Z 06007KT 030V090 4800 BR FEW012 04/03 Q1029
10:20
I
4 °C 4,3 km 1.100 ft 040° 040° 7 kt METAR EDHI 010920Z 04007KT 4300 BR BKN011 04/03 Q1029
09:50
I
4 °C 4,2 km 1.100 ft 060° 060° 5 kt METAR EDHI 010850Z 06005KT 4200 BR BKN011 OVC040 04/03 Q1029
09:20
I
4 °C 4,3 km 3.900 ft 060° 060° 7 kt METAR EDHI 010820Z 06007KT 4300 BR SCT011 OVC039 04/03 Q1029
08:50
I
4 °C 3,9 km 4.100 ft 080° 080° 4 kt METAR EDHI 010750Z 08004KT 040V120 3900 BR SCT010 OVC041 04/03 Q1028
08:20
I
4 °C 4,4 km 4.200 ft 090° 090° 3 kt METAR EDHI 010720Z 09003KT 030V160 4400 BR FEW010 OVC042 04/03 Q1028
07:50
I
4 °C 4,8 km 1.100 ft 090° 090° 4 kt METAR EDHI 010650Z 09004KT 050V140 4800 BR BKN011 OVC043 04/03 Q1028
07:20
I
4 °C 4,9 km 4.300 ft 080° 080° 5 kt METAR EDHI 010620Z 08005KT 060V120 4900 BR SCT011 SCT013 OVC043 04/03 Q1028
06:50
I
4 °C 4,7 km 4.400 ft 080° 080° 4 kt METAR EDHI 010550Z 08004KT 050V130 4700 BR SCT010 SCT012 OVC044 04/03 Q1028
06:20
I
4 °C 4,6 km 1.100 ft 080° 080° 4 kt METAR EDHI 010520Z 08004KT 050V120 4600 BR SCT009 BKN011 OVC044 04/03 Q1028
05:50
I
4 °C 4,6 km 1.000 ft 080° 080° 4 kt METAR EDHI 010450Z AUTO 08004KT 040V120 4600 // BKN010/// OVC043/// 04/04 Q1028
05:20
I
4 °C 4,5 km 1.000 ft 090° 090° 5 kt METAR EDHI 010420Z AUTO 09005KT 060V130 4500 // SCT008/// OVC010/// 04/04 Q1027
04:50
I
4 °C 4,8 km 900 ft 090° 090° 3 kt METAR EDHI 010350Z AUTO 09003KT 050V150 4800 // OVC009/// 04/04 Q1027
04:20
I
4 °C 4,9 km 1.000 ft Var Var 2 kt METAR EDHI 010320Z AUTO VRB02KT 4900 // SCT008/// OVC010/// 04/04 Q1027
03:50
M
4 °C 5 km 1.100 ft Var Var 2 kt METAR EDHI 010250Z AUTO VRB02KT 5000 // SCT009/// BKN011/// OVC039/// 04/04 Q1027
03:20
I
4 °C 4,7 km 900 ft 100° 100° 3 kt METAR EDHI 010220Z AUTO 10003KT 070V140 4700 // OVC009/// 04/04 Q1027
02:50
I
4 °C 4,7 km 1.100 ft 100° 100° 3 kt METAR EDHI 010150Z AUTO 10003KT 060V150 4700 // SCT009/// OVC011/// 04/04 Q1027
02:20
I
4 °C 4,8 km 900 ft 090° 090° 3 kt METAR EDHI 010120Z AUTO 09003KT 040V130 4800 // BKN009/// OVC012/// 04/04 Q1027
01:50
I
4 °C 4,7 km 1.100 ft 090° 090° 3 kt METAR EDHI 010050Z AUTO 09003KT 050V120 4700 // SCT008/// OVC011/// 04/04 Q1027
01:20
I
4 °C 4,3 km 900 ft 090° 090° 3 kt METAR EDHI 010020Z AUTO 09003KT 060V120 4300 // OVC009/// 04/04 Q1027
00:50
I
4 °C 4,2 km 800 ft 090° 090° 3 kt METAR EDHI 302350Z AUTO 09003KT 050V130 4200 // OVC008/// 04/04 Q1027
00:20
I
4 °C 4 km 900 ft 080° 080° 3 kt METAR EDHI 302320Z AUTO 08003KT 040V120 4000 // SCT007/// BKN009/// OVC026/// 04/04 Q1027

30 novembre 2022

Temps Code Temps Temp. Vue Base cloud Vent METAR/SPECI
23:50
I
4 °C 4 km 700 ft 080° 080° 4 kt METAR EDHI 302250Z AUTO 08004KT 4000 // BKN007/// OVC024/// 04/04 Q1027
23:20
I
4 °C 3,6 km 800 ft 090° 090° 3 kt METAR EDHI 302220Z AUTO 09003KT 050V150 3600 // BKN008/// OVC020/// 04/04 Q1027
22:50
I
4 °C 3,6 km 700 ft 090° 090° 3 kt METAR EDHI 302150Z AUTO 09003KT 050V140 3600 // OVC007/// 04/04 Q1027
22:20
I
4 °C 3,5 km 700 ft 100° 100° 3 kt METAR EDHI 302120Z AUTO 10003KT 030V150 3500 // OVC007/// 04/04 Q1027
21:50
I
4 °C 4,1 km 800 ft 090° 090° 3 kt METAR EDHI 302050Z AUTO 09003KT 040V150 4100 // OVC008/// 04/04 Q1027
21:20
I
4 °C 4,2 km 900 ft 090° 090° 4 kt METAR EDHI 302020Z AUTO 09004KT 030V120 4200 // SCT007/// OVC009/// 04/04 Q1027
20:50
I
4 °C 3,9 km 700 ft 090° 090° 4 kt METAR EDHI 301950Z AUTO 09004KT 050V120 3900 // OVC007/// 04/04 Q1027
20:20
I
4 °C 3,8 km 500 ft 090° 090° 4 kt METAR EDHI 301920Z 09004KT 060V130 3800 BR OVC005 04/04 Q1027
19:50
L
4 °C 3,5 km 400 ft 090° 090° 5 kt METAR EDHI 301850Z 09005KT 3500 BR OVC004 04/04 Q1026
19:20
I
4 °C 4,3 km 500 ft 080° 080° 5 kt METAR EDHI 301820Z 08005KT 060V120 4300 BR OVC005 04/04 Q1026
18:50
I
4 °C 4,5 km 500 ft 080° 080° 4 kt METAR EDHI 301750Z 08004KT 040V120 4500 BR OVC005 04/04 Q1026
18:20
I
4 °C 4,3 km 500 ft 080° 080° 5 kt METAR EDHI 301720Z 08005KT 4300 BR OVC005 04/04 Q1026
17:50
I
4 °C 3,8 km 500 ft 050° 050° 3 kt METAR EDHI 301650Z 05003KT 3800 BR OVC005 04/04 Q1026
17:20
I
4 °C 4,1 km 500 ft 080° 080° 4 kt METAR EDHI 301620Z 08004KT 060V120 4100 BR OVC005 04/04 Q1026
16:50
I
4 °C 4,4 km 500 ft 070° 070° 5 kt METAR EDHI 301550Z 07005KT 040V100 4400 BR OVC005 04/04 Q1025
16:20
I
4 °C 4,5 km 500 ft 070° 070° 5 kt METAR EDHI 301520Z 07005KT 040V100 4500 BR OVC005 04/04 Q1025
15:50
I
5 °C 4 km 600 ft 090° 090° 6 kt METAR EDHI 301450Z 09006KT 4000 BR OVC006 05/04 Q1025
15:20
I
5 °C 4,2 km 600 ft 070° 070° 5 kt METAR EDHI 301420Z 07005KT 030V100 4200 BR OVC006 05/04 Q1025
14:50
I
5 °C 5 km 700 ft 080° 080° 5 kt METAR EDHI 301350Z 08005KT 060V120 5000 BR OVC007 05/04 Q1025
14:20
I
5 °C 6 km 700 ft 070° 070° 5 kt METAR EDHI 301320Z 07005KT 040V100 6000 OVC007 05/05 Q1025
13:50
I
5 °C 6 km 800 ft 060° 060° 5 kt METAR EDHI 301250Z 06005KT 6000 OVC008 05/05 Q1025
13:20
I
5 °C 6 km 800 ft 080° 080° 5 kt METAR EDHI 301220Z 08005KT 6000 OVC008 05/05 Q1025
12:50
I
5 °C 6 km 800 ft 080° 080° 5 kt METAR EDHI 301150Z 08005KT 050V110 6000 OVC008 05/05 Q1025
12:20
I
5 °C 6 km 800 ft 080° 080° 5 kt METAR EDHI 301120Z 08005KT 050V110 6000 OVC008 05/05 Q1024
11:50
I
5 °C 7 km 800 ft 080° 080° 6 kt METAR EDHI 301050Z 08006KT 040V100 7000 OVC008 05/04 Q1024
11:20
I
5 °C 7 km 900 ft 080° 080° 6 kt METAR EDHI 301020Z 08006KT 7000 OVC009 05/05 Q1025
10:50
I
5 °C 7 km 900 ft 080° 080° 6 kt METAR EDHI 300950Z 08006KT 060V230 7000 OVC009 05/05 Q1025
10:20
I
5 °C 4,8 km 800 ft 080° 080° 6 kt METAR EDHI 300920Z 08006KT 4800 BR OVC008 05/05 Q1025
09:50
I
5 °C 4,5 km 800 ft 070° 070° 5 kt METAR EDHI 300850Z 07005KT 050V110 4500 BR OVC008 05/05 Q1024
09:20
I
5 °C 4,9 km 800 ft 080° 080° 5 kt METAR EDHI 300820Z 08005KT 060V120 4900 BR OVC008 05/04 Q1024
08:50
I
5 °C 4,8 km 700 ft 080° 080° 5 kt METAR EDHI 300750Z 08005KT 040V110 4800 BR OVC007 05/04 Q1024
08:20
I
5 °C 4,8 km 800 ft 080° 080° 6 kt METAR EDHI 300720Z 08006KT 4800 BR OVC008 05/04 Q1024
07:50
I
5 °C 4,9 km 700 ft 080° 080° 7 kt METAR EDHI 300650Z 08007KT 4900 BR OVC007 05/04 Q1023
07:20
I
4 °C 4,6 km 700 ft 080° 080° 7 kt METAR EDHI 300620Z 08007KT 4600 BR OVC007 04/04 Q1023
06:50
I
4 °C 4,7 km 700 ft 080° 080° 6 kt METAR EDHI 300550Z 08006KT 4700 BR OVC007 04/04 Q1023
06:20
I
4 °C 4,7 km 700 ft 080° 080° 6 kt METAR EDHI 300520Z 08006KT 050V110 4700 BR BKN007 04/04 Q1023
05:50
I
4 °C 4,7 km 700 ft 080° 080° 5 kt METAR EDHI 300450Z AUTO 08005KT 050V110 4700 // OVC007/// 04/04 Q1023
05:20
I
4 °C 4,7 km 800 ft 080° 080° 6 kt METAR EDHI 300420Z AUTO 08006KT 050V110 4700 // OVC008/// 04/04 Q1023
04:50
I
4 °C 4,7 km 800 ft 080° 080° 6 kt METAR EDHI 300350Z AUTO 08006KT 4700 // OVC008/// 04/04 Q1023
04:20
I
4 °C 4,8 km 800 ft 080° 080° 5 kt METAR EDHI 300320Z AUTO 08005KT 050V110 4800 // OVC008/// 04/04 Q1022
03:50
I
4 °C 5 km 800 ft 070° 070° 5 kt METAR EDHI 300250Z AUTO 07005KT 040V100 5000 // OVC008/// 04/04 Q1022
03:20
I
4 °C 5 km 800 ft 080° 080° 5 kt SPECI EDHI 300220Z AUTO 08005KT 050V110 5000 // OVC008/// 04/04 Q1022
02:50
I
4 °C 5 km 900 ft 080° 080° 6 kt METAR EDHI 300150Z AUTO 08006KT 5000 // OVC009/// 04/04 Q1022
02:20
I
4 °C 5 km 800 ft 090° 090° 5 kt METAR EDHI 300120Z AUTO 09005KT 060V150 5000 // OVC008/// 04/04 Q1022
01:50
I
5 °C 5 km 900 ft 090° 090° 5 kt METAR EDHI 300050Z AUTO 09005KT 060V130 5000 // OVC009/// 05/04 Q1022
01:20
I
4 °C 5 km 800 ft 090° 090° 5 kt METAR EDHI 300020Z AUTO 09005KT 050V120 5000 // OVC008/// 04/04 Q1022
00:50
I
5 °C 5 km 800 ft 090° 090° 5 kt METAR EDHI 292350Z AUTO 09005KT 060V130 5000 // OVC008/// 05/04 Q1022
00:20
I
4 °C 4,9 km 800 ft 090° 090° 5 kt METAR EDHI 292320Z AUTO 09005KT 060V120 4900 // OVC008/// 04/04 Q1022

29 novembre 2022

Temps Code Temps Temp. Vue Base cloud Vent METAR/SPECI
23:50
I
5 °C 4,7 km 800 ft 090° 090° 6 kt METAR EDHI 292250Z AUTO 09006KT 060V130 4700 // OVC008/// 05/04 Q1022
23:20
I
5 °C 4,6 km 700 ft 090° 090° 6 kt METAR EDHI 292220Z AUTO 09006KT 060V120 4600 // OVC007/// 05/04 Q1022
22:50
I
5 °C 4,3 km 700 ft 090° 090° 4 kt METAR EDHI 292150Z AUTO 09004KT 050V120 4300 // OVC007/// 05/04 Q1021
22:20
I
5 °C 4,3 km 700 ft 100° 100° 4 kt METAR EDHI 292120Z AUTO 10004KT 060V130 4300 // OVC007/// 05/04 Q1021
21:50
I
5 °C 4,5 km 700 ft 090° 090° 6 kt METAR EDHI 292050Z AUTO 09006KT 050V130 4500 // OVC007/// 05/04 Q1021
21:20
I
5 °C 4,5 km 700 ft 100° 100° 4 kt METAR EDHI 292020Z AUTO 10004KT 050V130 4500 // OVC007/// 05/04 Q1021
20:50
I
5 °C 4,4 km 800 ft 090° 090° 5 kt METAR EDHI 291950Z AUTO 09005KT 050V130 4400 // OVC008/// 05/04 Q1021
20:20
I
4 °C 4,2 km 800 ft 090° 090° 5 kt METAR EDHI 291920Z AUTO 09005KT 060V120 4200 // OVC008/// 04/04 Q1021
19:50
I
4 °C 4,8 km 800 ft 110° 110° 5 kt METAR EDHI 291850Z AUTO 11005KT 070V170 4800 // OVC008/// 04/04 Q1021
19:20
I
4 °C 4,7 km 800 ft 110° 110° 5 kt METAR EDHI 291820Z 11005KT 060V150 4700 OVC008 04/04 Q1021
18:50
I
4 °C 5 km 900 ft 110° 110° 5 kt METAR EDHI 291750Z 11005KT 070V160 5000 -DZ BR OVC009 04/04 Q1020
18:20
M
5 °C 5 km 1.100 ft 110° 110° 6 kt METAR EDHI 291720Z 11006KT 070V180 5000 -DZ BR SCT009 OVC011 05/04 Q1020
17:50
M
5 °C 5 km 1.000 ft 110° 110° 6 kt METAR EDHI 291650Z 11006KT 070V160 5000 -DZ BR OVC010 05/04 Q1020
17:20
M
5 °C 5 km 1.000 ft 110° 110° 5 kt METAR EDHI 291620Z 11005KT 070V150 5000 -DZ BR OVC010 05/04 Q1020
16:50
I
4 °C 5 km 900 ft 110° 110° 4 kt METAR EDHI 291550Z 11004KT 060V160 5000 -DZ BR OVC009 04/04 Q1020
16:20
I
4 °C 4,3 km 900 ft 110° 110° 4 kt METAR EDHI 291520Z 11004KT 070V160 4300 -DZ BR BKN009 OVC037 04/04 Q1019
15:50
I
5 °C 4,8 km 1.000 ft 110° 110° 3 kt METAR EDHI 291450Z 11003KT 060V140 4800 -DZ BR BKN010 05/04 Q1019
15:20
I
5 °C 4,5 km 1.000 ft 120° 120° 3 kt METAR EDHI 291420Z 12003KT 080V250 4500 -DZ BR BKN010 OVC020 05/04 Q1019
14:50
I
5 °C 4,6 km 900 ft 110° 110° 5 kt METAR EDHI 291350Z 11005KT 050V170 4600 -DZ BR BKN009 OVC019 05/04 Q1019
14:20
I
5 °C 4,6 km 900 ft 100° 100° 4 kt METAR EDHI 291320Z 10004KT 040V150 4600 -DZ BR BKN009 OVC019 05/04 Q1019
13:50
I
4 °C 4,6 km 800 ft 100° 100° 4 kt METAR EDHI 291250Z 10004KT 050V140 4600 -DZ BR BKN008 OVC018 04/04 Q1019
13:20
I
4 °C 4,7 km 1.900 ft 100° 100° 4 kt METAR EDHI 291220Z 10004KT 060V130 4700 -DZ BR SCT008 OVC019 04/04 Q1018
12:50
I
4 °C 4,6 km 1.900 ft 100° 100° 4 kt METAR EDHI 291150Z 10004KT 060V120 4600 -RA SCT009 OVC019 04/04 Q1018
12:20
I
4 °C 4,3 km 2.000 ft 100° 100° 4 kt METAR EDHI 291120Z 10004KT 040V140 4300 -RA SCT008 OVC020 04/04 Q1018
11:50
I
4 °C 4,5 km 2.100 ft 110° 110° 5 kt METAR EDHI 291050Z 11005KT 080V160 4500 -RA SCT008 OVC021 04/04 Q1018
11:20
I
4 °C 4,7 km 2.100 ft 110° 110° 5 kt METAR EDHI 291020Z 11005KT 060V150 4700 -RA BKN021 OVC024 04/04 Q1018
10:50
I
4 °C 4,7 km 2.300 ft 100° 100° 6 kt METAR EDHI 290950Z 10006KT 060V140 4700 BR SCT008 OVC023 04/04 Q1018

Nous et des tiers suivons ton comportement Internet sur notre site Web à l'aide de cookies. Si tu continues, nous supposons que tu es d'accord avec notre Politique en matière de cookies.